Chesterfield, Connecticut
Current Conditions -  °F | °C
As of 6:56 AM on Thursday 23 Oct 2014 (Local Time) from KGON Reporting Station
Overcast Overcast  
Wind Chill: 51°   Ceiling: 1800
Heat Index: 51°   Visibility: 10mi
Dew Point: 47°   Wind: 21mph
Humidity: 86%   Direction: 20°NNE
Pressure: 29.58"   Gusts: 30mph
Location:  41.4669°N, 72.1896°W
Report Text: KGON 231056Z 02018G26KT 10SM OVC018 11/08 A2958 RMK AO2 PK WND 02028/1024 SLP016 T01060083
Loading
Personal Weather Stations






























Interactive Weather Map
Tropical Storm Tracking
New forecast layout! Learn more

10-Day Weather Forecast

Advertisements
Track Severe Weather on mobile